• Join FlightAware (Why Join?)
  • Login
  • US Flag 
12:07PM EST


 

Airport Tracker/Info


-or-


 

Live Flight TrackerFlight Track Log ✈ N431EH ✈ 29-Apr-2014 ✈ KSLC - KRWL

Flight Track Log - Related Links

Times and Time Zones

All times are in EDT time to prevent confusion due to time zone crossing. See the N431EH flight status page for this flight to view local times or setup timezone preferences in your user account.

Time Position Orientation Groundspeed Altitude Reporting Facility
EDT Latitude Longitude Course Direction KTS MPH feet Rate Location/Type
01:40PM 40.8086 -111.9786 37° Northeast 200 230 5,500  Level Salt Lake Center
01:45PM 41.0402 -111.7510 97° East 411 473 23,200 3,240 Climbing FlightAware ADS-B
01:46PM 41.0300 -111.6232 90° East 421 484 25,200 2,700 Climbing FlightAware ADS-B (KBTF)
01:47PM 41.0359 -111.5360 83° East 409 471 26,900 2,760 Climbing FlightAware ADS-B (KBTF)
01:47PM 41.0421 -111.4661 83° East 413 475 28,400 1,800 Climbing FlightAware ADS-B
01:48PM 41.0511 -111.3634 83° East 442 509 29,000 420 Climbing FlightAware ADS-B
01:49PM 41.0628 -111.2260 84° East 472 543 29,000  Level FlightAware ADS-B (KBTF)
01:49PM 41.0726 -111.1133 82° East 472 543 29,000 480 Level FlightAware ADS-B (KBTF)
01:50PM 41.0945 -111.0039 74° East 465 535 29,700 1,620 Climbing FlightAware ADS-B
01:52PM 41.1510 -110.7280 75° East 454 522 33,000 720 Climbing FlightAware ADS-B
01:54PM 41.2316 -110.3264 75° East 462 532 33,000  Level FlightAware ADS-B
01:55PM 41.2687 -110.1389 75° East 469 540 33,000  Level FlightAware ADS-B
01:56PM 41.3003 -109.9670 77° East 466 536 33,000  Level FlightAware ADS-B
01:57PM 41.3027 -109.9537 76° East 465 535 33,000  Level FlightAware ADS-B
01:58PM 41.3489 -109.6987 77° East 469 540 33,000  Level FlightAware ADS-B
01:59PM 41.3849 -109.4963 77° East 471 542 33,000 -960 Level FlightAware ADS-B
02:02PM 41.4489 -109.1321 77° East 454 522 29,900 -1,560 Descending FlightAware ADS-B
02:03PM 41.4804 -108.9495 77° East 445 512 28,200 -2,160 Descending FlightAware ADS-B
02:03PM 41.5010 -108.8296 77° East 435 501 26,300 -1,920 Descending FlightAware ADS-B
02:04PM 41.5203 -108.7164 77° East 434 499 25,300 -1,500 Descending Denver Center
02:05PM 41.5508 -108.5708 74° East 431 496 23,600 -1,740 Descending Denver Center
02:06PM 41.5858 -108.4072 74° East 416 479 21,800 -1,620 Descending Denver Center
02:07PM 41.6161 -108.2697 74° East 410 472 20,300 -1,620 Descending Denver Center
02:08PM 41.6508 -108.1128 73° East 399 459 18,500 -1,440 Descending Denver Center
02:09PM 41.6825 -107.9675 74° East 372 428 17,100 -1,440 Descending Salt Lake Center
02:10PM 41.7086 -107.8433 74° East 364 419 15,600 -1,680 Descending Denver Center
02:11PM 41.7350 -107.7194 74° East 363 418 14,000 -1,680 Descending Denver Center
02:12PM 41.7619 -107.5931 74° East 328 377 12,200 -1,800 Descending Denver Center